createdAt,value
2019-05-28T00:00:32.917Z,16.56
2019-05-28T00:03:02.317Z,16.66
2019-05-28T00:05:32.347Z,16.69
2019-05-28T00:08:08.298Z,16.66
2019-05-28T00:10:38.091Z,16.51
2019-05-28T00:13:06.931Z,16.15
2019-05-28T00:15:37.216Z,16.21
2019-05-28T00:18:08.340Z,16.00
2019-05-28T00:20:36.865Z,15.93
2019-05-28T00:23:04.571Z,16.46
2019-05-28T00:25:34.181Z,16.54
2019-05-28T00:28:04.748Z,16.14
2019-05-28T00:30:34.867Z,15.98
2019-05-28T00:33:06.930Z,15.97
2019-05-28T00:35:41.025Z,15.96
2019-05-28T00:38:12.475Z,15.98
2019-05-28T00:40:44.330Z,16.52
2019-05-28T00:43:12.612Z,16.18
2019-05-28T00:45:44.199Z,16.44
2019-05-28T00:48:14.117Z,16.05
2019-05-28T00:50:43.977Z,15.96
2019-05-28T00:53:15.975Z,16.15
2019-05-28T00:55:44.197Z,15.83
2019-05-28T00:58:13.402Z,15.46
2019-05-28T01:00:46.408Z,15.62
2019-05-28T01:03:16.243Z,15.82
2019-05-28T01:05:48.208Z,15.96
2019-05-28T01:08:23.024Z,15.77
2019-05-28T01:10:54.200Z,15.84
2019-05-28T01:13:24.191Z,16.08
2019-05-28T01:15:55.740Z,15.94
2019-05-28T01:18:25.079Z,16.44
2019-05-28T01:20:53.968Z,15.84
2019-05-28T01:23:22.215Z,15.39
2019-05-28T01:25:50.865Z,15.41
2019-05-28T01:28:24.628Z,15.33
2019-05-28T01:30:57.595Z,15.98
2019-05-28T01:33:24.149Z,15.58
2019-05-28T01:35:54.400Z,15.72
2019-05-28T01:38:23.023Z,15.71
2019-05-28T01:40:57.249Z,15.89
2019-05-28T01:43:27.061Z,16.61
2019-05-28T01:45:55.641Z,16.17
2019-05-28T01:48:27.282Z,15.86
2019-05-28T01:50:56.394Z,15.72
2019-05-28T01:53:24.430Z,16.19
2019-05-28T01:55:54.203Z,16.32
2019-05-28T01:58:23.515Z,15.81
2019-05-28T02:00:53.266Z,15.78
2019-05-28T02:03:21.841Z,16.46
2019-05-28T02:05:51.090Z,16.73
2019-05-28T02:08:21.966Z,16.11
2019-05-28T02:10:51.331Z,15.77
2019-05-28T02:13:19.969Z,15.51
2019-05-28T02:15:49.516Z,15.39
2019-05-28T02:18:18.109Z,15.16
2019-05-28T02:20:45.789Z,15.28
2019-05-28T02:23:16.695Z,14.98
2019-05-28T02:25:48.843Z,15.30
2019-05-28T02:28:18.868Z,15.28
2019-05-28T02:30:50.653Z,15.14
2019-05-28T02:33:20.667Z,15.11
2019-05-28T02:35:49.966Z,15.26
2019-05-28T02:38:22.445Z,15.63
2019-05-28T02:40:52.362Z,15.70
2019-05-28T02:43:21.105Z,15.45
2019-05-28T02:45:50.953Z,15.43
2019-05-28T02:48:20.150Z,15.77
2019-05-28T02:50:59.486Z,15.54
2019-05-28T02:53:37.817Z,15.29
2019-05-28T02:56:06.256Z,15.52
2019-05-28T02:58:41.006Z,15.29
2019-05-28T03:01:11.666Z,15.12
2019-05-28T03:03:41.173Z,15.15
2019-05-28T03:06:14.358Z,15.36
2019-05-28T03:08:45.249Z,15.46
2019-05-28T03:11:20.402Z,15.75
2019-05-28T03:13:49.733Z,15.76
2019-05-28T03:16:18.532Z,16.14
2019-05-28T03:18:48.883Z,15.67
2019-05-28T03:21:19.310Z,15.73
2019-05-28T03:23:48.842Z,15.91
2019-05-28T03:26:19.103Z,16.34
2019-05-28T03:28:47.581Z,15.80
2019-05-28T03:31:17.494Z,16.30
2019-05-28T03:33:48.287Z,16.00
2019-05-28T03:36:18.282Z,15.73
2019-05-28T03:38:47.166Z,15.84
2019-05-28T03:41:16.700Z,16.28
2019-05-28T03:43:46.486Z,15.89
2019-05-28T03:46:16.346Z,15.59
2019-05-28T03:48:48.078Z,16.26
2019-05-28T03:51:15.851Z,15.93
2019-05-28T03:53:45.243Z,15.95
2019-05-28T03:56:19.141Z,15.97
2019-05-28T03:58:47.011Z,15.70
2019-05-28T04:01:17.962Z,15.71
2019-05-28T04:03:48.562Z,15.83
2019-05-28T04:06:21.471Z,15.66
2019-05-28T04:08:50.348Z,16.21
2019-05-28T04:11:22.945Z,15.83
2019-05-28T04:13:52.364Z,16.33
2019-05-28T04:16:23.388Z,15.91
2019-05-28T04:18:52.279Z,15.80
2019-05-28T04:21:21.890Z,16.16
2019-05-28T04:23:53.328Z,15.88
2019-05-28T04:26:27.961Z,16.15
2019-05-28T04:28:58.209Z,15.91
2019-05-28T04:31:27.356Z,15.73
2019-05-28T04:33:58.248Z,15.72
2019-05-28T04:36:26.288Z,15.56
2019-05-28T04:38:54.633Z,15.92
2019-05-28T04:41:24.274Z,15.44
2019-05-28T04:43:57.519Z,15.59
2019-05-28T04:46:28.845Z,15.40
2019-05-28T04:48:58.216Z,15.39
2019-05-28T04:51:34.382Z,15.17
2019-05-28T04:54:02.598Z,15.45
2019-05-28T04:56:33.142Z,15.81
2019-05-28T04:59:03.828Z,15.61
2019-05-28T05:01:29.431Z,16.14
2019-05-28T05:04:03.240Z,15.55
2019-05-28T05:06:36.051Z,15.54
2019-05-28T05:09:05.951Z,15.58
2019-05-28T05:11:36.227Z,15.76
2019-05-28T05:14:07.842Z,15.54
2019-05-28T05:16:38.052Z,15.87
2019-05-28T05:19:11.220Z,15.73
2019-05-28T05:21:40.774Z,15.74
2019-05-28T05:24:12.397Z,15.73
2019-05-28T05:26:42.412Z,15.82
2019-05-28T05:29:10.932Z,15.74
2019-05-28T05:31:40.637Z,16.00
2019-05-28T05:34:10.833Z,15.95
2019-05-28T05:36:40.278Z,15.58
2019-05-28T05:39:10.641Z,15.99
2019-05-28T05:41:42.291Z,15.56
2019-05-28T05:44:12.057Z,15.68
2019-05-28T05:46:40.343Z,15.24
2019-05-28T05:49:10.370Z,14.95
2019-05-28T05:51:39.035Z,14.80
2019-05-28T05:54:07.535Z,14.85
2019-05-28T05:56:38.292Z,14.84
2019-05-28T05:59:08.390Z,15.08
2019-05-28T06:01:36.496Z,14.80
2019-05-28T06:04:06.070Z,14.74
2019-05-28T06:06:36.617Z,14.69
2019-05-28T06:09:08.755Z,14.62
2019-05-28T06:11:46.512Z,14.75
2019-05-28T06:14:15.075Z,14.72
2019-05-28T06:16:48.307Z,14.72
2019-05-28T06:19:16.831Z,14.67
2019-05-28T06:21:44.840Z,14.80
2019-05-28T06:24:14.019Z,15.11
2019-05-28T06:26:42.809Z,14.81
2019-05-28T06:29:11.790Z,14.83
2019-05-28T06:31:39.819Z,14.92
2019-05-28T06:34:10.698Z,14.90
2019-05-28T06:36:39.598Z,14.93
2019-05-28T06:39:11.034Z,15.13
2019-05-28T06:41:38.995Z,15.04
2019-05-28T06:44:07.187Z,15.17
2019-05-28T06:46:40.144Z,15.11
2019-05-28T06:49:10.293Z,15.31
2019-05-28T06:51:41.090Z,15.04
2019-05-28T06:54:12.487Z,15.20
2019-05-28T06:56:44.963Z,15.27
2019-05-28T06:59:17.448Z,16.26
2019-05-28T07:01:51.387Z,15.44
2019-05-28T07:04:32.417Z,15.41
2019-05-28T07:06:50.880Z,15.25
2019-05-28T07:09:20.998Z,14.93
2019-05-28T07:11:49.171Z,14.99
2019-05-28T07:14:18.438Z,15.22
2019-05-28T07:16:53.226Z,15.21
2019-05-28T07:19:24.746Z,15.18
2019-05-28T07:21:45.944Z,15.28
2019-05-28T07:24:14.417Z,15.34
2019-05-28T07:26:43.371Z,15.32
2019-05-28T07:29:13.653Z,15.68
2019-05-28T07:31:42.628Z,15.45
2019-05-28T07:34:27.410Z,15.72
2019-05-28T07:36:42.253Z,15.57
2019-05-28T07:39:12.279Z,16.00
2019-05-28T07:41:41.169Z,16.15
2019-05-28T07:44:15.272Z,15.43
2019-05-28T07:46:43.598Z,16.00
2019-05-28T07:49:12.759Z,15.59
2019-05-28T07:51:41.129Z,15.59
2019-05-28T07:54:12.167Z,15.76
2019-05-28T07:56:43.239Z,15.51
2019-05-28T07:59:16.907Z,15.40
2019-05-28T08:01:46.472Z,15.55
2019-05-28T08:04:19.301Z,15.92
2019-05-28T08:06:54.660Z,15.79
2019-05-28T08:09:19.232Z,15.61
2019-05-28T08:11:48.555Z,15.88
2019-05-28T08:14:19.992Z,15.85
2019-05-28T08:16:52.578Z,16.08
2019-05-28T08:19:18.888Z,15.86
2019-05-28T08:21:49.860Z,16.23
2019-05-28T08:24:17.730Z,16.80
2019-05-28T08:26:48.436Z,16.23
2019-05-28T08:29:20.091Z,16.13
2019-05-28T08:31:49.942Z,16.21
2019-05-28T08:34:22.591Z,16.15
2019-05-28T08:37:05.027Z,16.15
2019-05-28T08:39:23.377Z,16.53
2019-05-28T08:41:56.291Z,16.34
2019-05-28T08:44:26.226Z,16.51
2019-05-28T08:46:57.019Z,16.48
2019-05-28T08:49:26.412Z,16.31
2019-05-28T08:51:54.870Z,16.89
2019-05-28T08:54:23.616Z,16.60
2019-05-28T08:56:53.520Z,16.71
2019-05-28T08:59:28.275Z,16.62
2019-05-28T09:01:51.435Z,16.67
2019-05-28T09:04:21.166Z,17.23
2019-05-28T09:06:49.478Z,16.89
2019-05-28T09:09:18.102Z,16.68
2019-05-28T09:11:48.039Z,16.86
2019-05-28T09:14:18.110Z,16.59
2019-05-28T09:16:49.161Z,16.39
2019-05-28T09:19:20.893Z,16.47
2019-05-28T09:21:48.679Z,16.54
2019-05-28T09:24:19.532Z,16.33
2019-05-28T09:26:49.535Z,16.28
2019-05-28T09:29:22.044Z,16.48
2019-05-28T09:31:49.280Z,16.58
2019-05-28T09:34:19.606Z,16.84
2019-05-28T09:36:47.766Z,16.76
2019-05-28T09:39:17.279Z,16.83
2019-05-28T09:41:46.707Z,16.94
2019-05-28T09:44:15.882Z,17.30
2019-05-28T09:46:44.977Z,17.01
2019-05-28T09:49:16.941Z,16.75
2019-05-28T09:51:47.182Z,16.60
2019-05-28T09:54:20.593Z,16.66
2019-05-28T09:56:53.244Z,17.00
2019-05-28T09:59:22.951Z,17.14
2019-05-28T10:01:51.738Z,18.10
2019-05-28T10:04:21.491Z,17.74
2019-05-28T10:06:53.226Z,18.21
2019-05-28T10:09:24.163Z,18.06
2019-05-28T10:11:55.065Z,17.91
2019-05-28T10:14:23.797Z,18.29
2019-05-28T10:16:56.312Z,18.48
2019-05-28T10:19:26.463Z,18.34
2019-05-28T10:21:59.733Z,18.77
2019-05-28T10:24:29.441Z,19.18
2019-05-28T10:26:58.564Z,19.64
2019-05-28T10:29:27.894Z,19.24
2019-05-28T10:31:56.654Z,19.25
2019-05-28T10:34:25.012Z,19.10
2019-05-28T10:36:53.449Z,18.79
2019-05-28T10:39:23.087Z,19.15
2019-05-28T10:41:52.770Z,19.19
2019-05-28T10:44:22.534Z,19.43
2019-05-28T10:46:50.650Z,19.11
2019-05-28T10:49:19.663Z,18.85
2019-05-28T10:51:52.422Z,18.82
2019-05-28T10:54:24.167Z,19.33
2019-05-28T10:56:54.111Z,19.86
2019-05-28T10:59:24.357Z,19.52
2019-05-28T11:01:53.187Z,18.25
2019-05-28T11:04:21.416Z,17.64
2019-05-28T11:06:52.333Z,17.24
2019-05-28T11:09:19.856Z,16.93
2019-05-28T11:11:51.654Z,16.89
2019-05-28T11:14:24.474Z,16.90
2019-05-28T11:16:53.266Z,17.84
2019-05-28T11:19:22.253Z,18.53
2019-05-28T11:21:51.252Z,19.13
2019-05-28T11:24:20.759Z,19.02
2019-05-28T11:26:49.410Z,18.51
2019-05-28T11:29:18.335Z,18.19
2019-05-28T11:31:49.717Z,18.52
2019-05-28T11:34:21.364Z,18.75
2019-05-28T11:36:49.351Z,18.70
2019-05-28T11:39:17.504Z,19.04
2019-05-28T11:41:52.309Z,19.13
2019-05-28T11:44:22.308Z,18.95
2019-05-28T11:46:53.888Z,18.99
2019-05-28T11:49:21.769Z,19.30
2019-05-28T11:51:51.679Z,19.18
2019-05-28T11:54:20.050Z,18.99
2019-05-28T11:56:49.962Z,19.41
2019-05-28T11:59:20.212Z,19.59
2019-05-28T12:01:50.278Z,19.37
2019-05-28T12:04:20.296Z,19.50
2019-05-28T12:06:51.332Z,19.88
2019-05-28T12:09:22.171Z,20.14
2019-05-28T12:11:51.675Z,20.00
2019-05-28T12:14:22.230Z,19.76
2019-05-28T12:16:50.642Z,19.49
2019-05-28T12:19:19.639Z,19.58
2019-05-28T12:21:50.745Z,20.23
2019-05-28T12:24:28.818Z,20.24
2019-05-28T12:26:59.084Z,20.11
2019-05-28T12:29:28.296Z,19.89
2019-05-28T12:32:06.238Z,20.10
2019-05-28T12:34:33.280Z,20.12
2019-05-28T12:37:06.683Z,19.42
2019-05-28T12:39:37.667Z,19.74
2019-05-28T12:42:07.368Z,19.85
2019-05-28T12:44:42.830Z,19.71
2019-05-28T12:47:14.649Z,19.83
2019-05-28T12:49:39.242Z,19.62
2019-05-28T12:52:09.277Z,19.80
2019-05-28T12:54:38.753Z,19.68
2019-05-28T12:57:09.204Z,20.03
2019-05-28T13:02:15.864Z,19.36
2019-05-28T13:04:45.768Z,19.58
2019-05-28T13:07:14.937Z,19.02
2019-05-28T13:09:49.294Z,18.72
2019-05-28T13:12:18.242Z,19.13
2019-05-28T13:14:47.208Z,19.33
2019-05-28T13:17:16.861Z,19.52
2019-05-28T13:19:47.240Z,19.43
2019-05-28T13:22:16.411Z,19.27
2019-05-28T13:24:45.066Z,19.48
2019-05-28T13:27:18.093Z,19.39
2019-05-28T13:29:42.372Z,19.20
2019-05-28T13:32:11.579Z,19.54
2019-05-28T13:34:42.234Z,19.56
2019-05-28T13:37:16.940Z,19.63
2019-05-28T13:39:45.456Z,19.55
2019-05-28T13:42:14.120Z,19.81
2019-05-28T13:44:44.909Z,19.95
2019-05-28T13:47:32.510Z,20.29
2019-05-28T13:49:44.189Z,19.75
2019-05-28T13:52:19.842Z,19.75
2019-05-28T13:54:44.386Z,19.51
2019-05-28T13:57:12.732Z,19.67
2019-05-28T13:59:41.071Z,19.50
2019-05-28T14:02:13.352Z,19.65
2019-05-28T14:04:44.966Z,19.34
2019-05-28T14:07:13.270Z,19.24
2019-05-28T14:09:42.418Z,19.45
2019-05-28T14:12:13.567Z,19.07
2019-05-28T14:14:47.307Z,19.55
2019-05-28T14:17:15.057Z,19.84
2019-05-28T14:19:47.749Z,19.91
2019-05-28T14:22:30.910Z,20.15
2019-05-28T14:24:43.469Z,19.65
2019-05-28T14:27:13.861Z,19.78
2019-05-28T14:29:44.673Z,20.04
2019-05-28T14:32:13.393Z,20.48
2019-05-28T14:34:43.243Z,20.10
2019-05-28T14:37:12.825Z,20.45
2019-05-28T14:39:41.522Z,20.42
2019-05-28T14:42:09.338Z,19.94
2019-05-28T14:44:43.241Z,19.79
2019-05-28T14:47:11.280Z,19.58
2019-05-28T14:49:42.569Z,19.57
2019-05-28T14:52:10.498Z,19.38
2019-05-28T14:54:38.265Z,19.77
2019-05-28T14:57:09.080Z,19.83
2019-05-28T14:59:38.546Z,19.90
2019-05-28T15:02:06.898Z,20.19
2019-05-28T15:04:38.436Z,19.67
2019-05-28T15:07:06.295Z,19.52
2019-05-28T15:09:35.008Z,19.69
2019-05-28T15:12:04.596Z,19.63
2019-05-28T15:14:34.913Z,19.46
2019-05-28T15:17:06.118Z,19.01
2019-05-28T15:19:37.308Z,19.16
2019-05-28T15:22:09.070Z,19.08
2019-05-28T15:24:37.950Z,19.27
2019-05-28T15:27:05.583Z,19.67
2019-05-28T15:29:35.912Z,19.55
2019-05-28T15:32:05.158Z,19.75
2019-05-28T15:34:33.288Z,19.80
2019-05-28T15:37:07.523Z,20.13
2019-05-28T15:39:40.183Z,19.87
2019-05-28T15:42:06.502Z,19.64
2019-05-28T15:44:37.187Z,19.44
2019-05-28T15:47:06.821Z,19.86
2019-05-28T15:49:37.176Z,19.24
2019-05-28T15:52:08.003Z,19.31
2019-05-28T15:54:36.521Z,19.47
2019-05-28T15:57:06.422Z,19.84
2019-05-28T15:59:36.163Z,19.89
2019-05-28T16:02:11.698Z,20.00
2019-05-28T16:04:42.925Z,19.75
2019-05-28T16:07:11.832Z,19.54
2019-05-28T16:09:55.185Z,19.70
2019-05-28T16:12:14.004Z,20.08
2019-05-28T16:14:43.220Z,20.21
2019-05-28T16:17:16.818Z,19.86
2019-05-28T16:19:47.698Z,19.72
2019-05-28T16:22:17.125Z,19.59
2019-05-28T16:24:45.137Z,19.76
2019-05-28T16:27:15.065Z,19.99
2019-05-28T16:29:44.993Z,19.78
2019-05-28T16:32:13.633Z,19.40
2019-05-28T16:34:48.352Z,19.50
2019-05-28T16:37:16.525Z,19.49
2019-05-28T16:39:48.699Z,19.01
2019-05-28T16:42:16.698Z,19.34
2019-05-28T16:44:49.450Z,19.36
2019-05-28T16:47:19.025Z,19.19
2019-05-28T16:49:47.130Z,19.30
2019-05-28T16:52:15.511Z,19.81
2019-05-28T16:54:46.549Z,19.88
2019-05-28T16:57:19.743Z,20.33
2019-05-28T16:59:47.710Z,19.82
2019-05-28T17:02:19.363Z,19.77
2019-05-28T17:04:49.189Z,20.13
2019-05-28T17:07:19.878Z,20.16
2019-05-28T17:09:55.374Z,19.35
2019-05-28T17:12:22.596Z,19.46
2019-05-28T17:14:52.847Z,19.40
2019-05-28T17:17:24.897Z,19.43
2019-05-28T17:19:58.387Z,19.65
2019-05-28T17:22:28.388Z,19.18
2019-05-28T17:25:01.113Z,19.02
2019-05-28T17:27:31.643Z,18.55
2019-05-28T17:30:15.878Z,18.17
2019-05-28T17:32:30.046Z,17.98
2019-05-28T17:35:00.997Z,17.81
2019-05-28T17:37:30.252Z,17.40
2019-05-28T17:39:59.984Z,17.09
2019-05-28T17:42:28.157Z,16.88
2019-05-28T17:44:58.033Z,16.68
2019-05-28T17:47:27.329Z,16.57
2019-05-28T17:49:59.051Z,16.74
2019-05-28T17:52:28.594Z,16.98
2019-05-28T17:55:00.462Z,17.96
2019-05-28T17:57:31.276Z,18.61
2019-05-28T18:00:01.369Z,19.72
2019-05-28T18:02:29.450Z,20.09
2019-05-28T18:04:58.185Z,20.67
2019-05-28T18:07:26.691Z,20.63
2019-05-28T18:09:57.355Z,21.27
2019-05-28T18:12:27.132Z,21.15
2019-05-28T18:14:56.585Z,21.29
2019-05-28T18:17:24.463Z,21.31
2019-05-28T18:19:53.269Z,21.00
2019-05-28T18:22:22.773Z,20.73
2019-05-28T18:24:53.454Z,19.54
2019-05-28T18:27:23.450Z,18.58
2019-05-28T18:29:53.321Z,17.72
2019-05-28T18:32:21.226Z,17.56
2019-05-28T18:34:49.461Z,17.19
2019-05-28T18:37:22.445Z,17.34
2019-05-28T18:39:51.309Z,17.39
2019-05-28T18:42:20.705Z,17.59
2019-05-28T18:44:52.959Z,17.21
2019-05-28T18:47:27.329Z,17.21
2019-05-28T18:49:57.147Z,17.24
2019-05-28T18:52:27.503Z,16.89
2019-05-28T18:54:54.222Z,16.45
2019-05-28T18:57:22.813Z,16.31
2019-05-28T18:59:52.903Z,16.21
2019-05-28T19:02:21.469Z,16.18
2019-05-28T19:04:50.853Z,15.99
2019-05-28T19:07:19.824Z,15.81
2019-05-28T19:09:49.430Z,15.69
2019-05-28T19:12:18.384Z,15.86
2019-05-28T19:14:48.731Z,15.73
2019-05-28T19:17:19.585Z,15.56
2019-05-28T19:19:48.638Z,15.47
2019-05-28T19:22:20.117Z,15.53
2019-05-28T19:24:47.959Z,15.49
2019-05-28T19:27:22.097Z,15.57
2019-05-28T19:29:50.551Z,15.70
2019-05-28T19:32:14.585Z,15.83
2019-05-28T19:34:41.330Z,15.59
2019-05-28T19:37:08.077Z,15.72
2019-05-28T19:39:34.817Z,15.99
2019-05-28T19:42:01.544Z,16.17
2019-05-28T19:44:28.293Z,16.17
2019-05-28T19:46:55.023Z,16.29
2019-05-28T19:49:21.758Z,16.35
2019-05-28T19:51:48.478Z,15.74
2019-05-28T19:54:15.227Z,15.68
2019-05-28T19:56:42.015Z,15.55
2019-05-28T19:59:08.713Z,15.58
2019-05-28T20:01:35.443Z,15.51
2019-05-28T20:04:02.279Z,15.56
2019-05-28T20:06:29.003Z,15.40
2019-05-28T20:08:55.746Z,15.30
2019-05-28T20:11:22.508Z,15.10
2019-05-28T20:13:49.239Z,15.02
2019-05-28T20:16:15.970Z,14.91
2019-05-28T20:18:42.739Z,14.83
2019-05-28T20:21:09.472Z,14.66
2019-05-28T20:23:36.219Z,14.62
2019-05-28T20:26:02.949Z,14.45
2019-05-28T20:28:29.703Z,14.44
2019-05-28T20:30:56.432Z,14.49
2019-05-28T20:33:23.163Z,14.48
2019-05-28T20:35:49.897Z,14.33
2019-05-28T20:38:16.662Z,14.25
2019-05-28T20:40:43.405Z,14.20
2019-05-28T20:43:10.337Z,14.15
2019-05-28T20:45:36.887Z,14.56
2019-05-28T20:48:04.605Z,14.93
2019-05-28T20:50:30.432Z,14.63
2019-05-28T20:52:57.410Z,14.54
2019-05-28T20:55:24.159Z,14.23
2019-05-28T20:57:51.192Z,14.13
2019-05-28T21:00:17.627Z,13.81
2019-05-28T21:02:44.378Z,13.81
2019-05-28T21:05:11.132Z,13.89
2019-05-28T21:07:38.087Z,13.84
2019-05-28T21:10:04.846Z,13.88
2019-05-28T21:12:43.330Z,14.02
2019-05-28T21:14:58.835Z,14.07
2019-05-28T21:17:25.757Z,13.96
2019-05-28T21:19:53.270Z,14.06
2019-05-28T21:22:26.762Z,14.07
2019-05-28T21:24:45.949Z,14.22
2019-05-28T21:27:12.699Z,14.69
2019-05-28T21:29:39.417Z,14.64
2019-05-28T21:32:06.169Z,14.49
2019-05-28T21:34:32.894Z,14.65
2019-05-28T21:36:59.646Z,14.68
2019-05-28T21:39:26.374Z,14.90
2019-05-28T21:41:57.116Z,14.69
2019-05-28T21:44:19.843Z,14.76
2019-05-28T21:46:46.593Z,14.66
2019-05-28T21:49:13.327Z,14.81
2019-05-28T21:51:40.078Z,14.87
2019-05-28T21:54:06.827Z,14.74
2019-05-28T21:56:33.651Z,14.51
2019-05-28T21:59:01.372Z,14.67
2019-05-28T22:01:27.123Z,14.51
2019-05-28T22:03:55.150Z,14.64
2019-05-28T22:06:20.587Z,14.62
2019-05-28T22:08:47.310Z,14.40
2019-05-28T22:11:14.042Z,14.37
2019-05-28T22:13:40.758Z,14.24
2019-05-28T22:16:08.559Z,14.14
2019-05-28T22:18:34.250Z,14.17
2019-05-28T22:21:00.970Z,14.22
2019-05-28T22:23:27.715Z,14.84
2019-05-28T22:25:54.439Z,14.28
2019-05-28T22:28:21.230Z,14.12
2019-05-28T22:30:47.950Z,13.99
2019-05-28T22:33:14.709Z,13.76
2019-05-28T22:35:41.762Z,13.69
2019-05-28T22:38:08.482Z,13.71
2019-05-28T22:40:35.236Z,13.67
2019-05-28T22:43:03.579Z,14.20
2019-05-28T22:45:28.730Z,14.12
2019-05-28T22:47:55.523Z,13.62
2019-05-28T22:50:23.393Z,13.56
2019-05-28T22:52:48.930Z,13.54
2019-05-28T22:55:15.659Z,13.50
2019-05-28T22:57:42.399Z,13.46
2019-05-28T23:00:09.198Z,13.52
2019-05-28T23:02:35.932Z,13.55
2019-05-28T23:05:03.166Z,13.47
2019-05-28T23:07:29.411Z,13.58
2019-05-28T23:09:56.129Z,13.55
2019-05-28T23:12:22.877Z,13.61
2019-05-28T23:14:49.976Z,13.62
2019-05-28T23:17:16.713Z,13.70
2019-05-28T23:19:43.437Z,13.81
2019-05-28T23:22:11.123Z,13.72
2019-05-28T23:24:36.914Z,13.66
2019-05-28T23:27:03.661Z,13.59
2019-05-28T23:29:30.387Z,13.52
2019-05-28T23:31:57.138Z,13.41
2019-05-28T23:34:23.874Z,13.59
2019-05-28T23:36:50.626Z,13.38
2019-05-28T23:39:17.349Z,13.59
2019-05-28T23:41:44.097Z,13.40
2019-05-28T23:44:11.679Z,13.37
2019-05-28T23:46:37.598Z,13.34
2019-05-28T23:49:04.606Z,13.37
2019-05-28T23:51:31.350Z,13.44
2019-05-28T23:53:58.077Z,13.40
2019-05-28T23:56:24.794Z,13.41
2019-05-28T23:58:51.529Z,13.49
